Terminal Aerodrome Forecast
Issued by NWS

Home | Current Version | Previous Version | Text Only | Print | Product List | Glossary On
Versions: 1 2 3 4 5 6 7 8 9 10 11 12 13 14 15 16 17 18 19 20 21 22 23 24 25 26 27
000
FTUS41 KOKX 282340
TAFSWF
TAF
KSWF 282340Z 2900/3006 26006KT P6SM BKN250
     FM290200 VRB03KT P6SM SCT150 BKN200
     FM291200 24006KT P6SM FEW050 SCT200
     FM291600 24009G15KT P6SM SCT050 SCT250
     FM291800 24016G24KT P6SM SCT050 SCT250
     FM292300 23010G16KT P6SM SCT050 SCT250
     FM300100 24007KT P6SM FEW050 SCT080
      AMD NOT SKED=

USA.gov is the U.S. government's official web portal to all federal, state and local government web resources and services.